Time;durP1;ratioP1;P1;durP2;ratioP2;P2;SDS_P1;SDS_P2;PMS_P1;PMS_P2;Temp;Humidity;BMP_temperature;BMP_pressure;BME280_temperature;BME280_humidity;BME280_pressure;Samples;Min_cycle;Max_cycle;Signal;HPM_P1;HPM_P2
2022/09/07 00:02:09;;;;;;;0.00;0.00;;;;;;;;;;5015652;28;20095;-79
2022/09/07 00:04:35;;;;;;;0.00;0.00;;;;;;;;;;4997748;28;20046;-80
2022/09/07 00:07:01;;;;;;;0.20;0.10;;;;;;;;;;5015642;28;20037;-79
2022/09/07 00:09:27;;;;;;;0.00;0.00;;;;;;;;;;5015508;28;20047;-79
2022/09/07 00:11:53;;;;;;;0.00;0.00;;;;;;;;;;4997480;28;20054;-80
2022/09/07 00:14:19;;;;;;;0.00;0.00;;;;;;;;;;5015345;28;20041;-80
2022/09/07 00:16:45;;;;;;;0.00;0.00;;;;;;;;;;5015248;28;20423;-79
2022/09/07 00:19:12;;;;;;;0.00;0.00;;;;;;;;;;5015384;28;20049;-79
2022/09/07 00:21:38;;;;;;;0.00;0.00;;;;;;;;;;4997662;28;20041;-80
2022/09/07 00:24:04;;;;;;;0.00;0.00;;;;;;;;;;5014629;28;20128;-80
2022/09/07 00:26:30;;;;;;;0.00;0.00;;;;;;;;;;5014999;28;20077;-80
2022/09/07 00:28:57;;;;;;;0.00;0.00;;;;;;;;;;4997273;28;20046;-79
2022/09/07 00:31:24;;;;;;;0.00;0.00;;;;;;;;;;5014892;28;20084;-80
2022/09/07 00:33:51;;;;;;;0.00;0.00;;;;;;;;;;4997378;28;20046;-80
2022/09/07 00:36:17;;;;;;;0.00;0.00;;;;;;;;;;5014903;28;20038;-80
2022/09/07 00:38:43;;;;;;;0.00;0.00;;;;;;;;;;5014723;28;20477;-80
2022/09/07 00:41:09;;;;;;;0.00;0.00;;;;;;;;;;4997320;28;20045;-80
2022/09/07 00:43:35;;;;;;;0.00;0.00;;;;;;;;;;4997130;28;20180;-80
2022/09/07 00:46:02;;;;;;;0.00;0.00;;;;;;;;;;5014587;28;20132;-80
2022/09/07 00:48:31;;;;;;;0.22;0.00;;;;;;;;;;4993540;28;20152;-80
2022/09/07 00:50:59;;;;;;;0.00;0.00;;;;;;;;;;4993565;28;20050;-79
2022/09/07 00:53:27;;;;;;;0.20;0.00;;;;;;;;;;4993767;28;20401;-80
2022/09/07 00:55:53;;;;;;;0.00;0.00;;;;;;;;;;4994675;28;20504;-80
2022/09/07 00:58:21;;;;;;;0.00;0.00;;;;;;;;;;4994953;28;20042;-79
2022/09/07 01:00:48;;;;;;;0.00;0.00;;;;;;;;;;4994664;28;20046;-79
2022/09/07 01:03:16;;;;;;;0.00;0.00;;;;;;;;;;4994986;28;20046;-80
2022/09/07 01:05:45;;;;;;;0.00;0.00;;;;;;;;;;4994765;28;20071;-79
2022/09/07 01:08:11;;;;;;;0.00;0.00;;;;;;;;;;4993308;28;20544;-80
2022/09/07 01:10:37;;;;;;;0.00;0.00;;;;;;;;;;4994634;28;20046;-80
2022/09/07 01:13:04;;;;;;;0.00;0.00;;;;;;;;;;4994673;28;20138;-79
2022/09/07 01:15:40;;;;;;;0.00;0.00;;;;;;;;;;4993054;28;20482;-80
2022/09/07 01:18:26;;;;;;;0.00;0.00;;;;;;;;;;4994678;28;20038;-80
2022/09/07 01:20:52;;;;;;;0.00;0.00;;;;;;;;;;4992899;28;20042;-80
2022/09/07 01:23:18;;;;;;;0.00;0.00;;;;;;;;;;4993073;28;20386;-79
2022/09/07 01:26:03;;;;;;;0.00;0.00;;;;;;;;;;4993167;28;20807;-80
2022/09/07 01:28:31;;;;;;;0.00;0.00;;;;;;;;;;4994492;28;20449;-79
2022/09/07 01:31:11;;;;;;;0.00;0.00;;;;;;;;;;4976665;28;20050;-80
2022/09/07 01:33:37;;;;;;;0.00;0.00;;;;;;;;;;4992711;28;20486;-81
2022/09/07 01:36:12;;;;;;;0.00;0.00;;;;;;;;;;4993771;28;20034;-80
2022/09/07 01:38:44;;;;;;;0.00;0.00;;;;;;;;;;4992871;28;20038;-80
2022/09/07 01:41:16;;;;;;;0.00;0.00;;;;;;;;;;4993998;28;20436;-79
2022/09/07 01:43:48;;;;;;;0.00;0.00;;;;;;;;;;4994099;28;20042;-80
2022/09/07 01:46:16;;;;;;;0.00;0.00;;;;;;;;;;4993305;28;20046;-80
2022/09/07 01:48:44;;;;;;;0.00;0.00;;;;;;;;;;5013755;28;20061;-80
2022/09/07 01:51:11;;;;;;;0.00;0.00;;;;;;;;;;4979716;28;20053;-80
2022/09/07 01:53:40;;;;;;;0.10;0.00;;;;;;;;;;5013614;28;20046;-79
2022/09/07 01:56:09;;;;;;;0.00;0.00;;;;;;;;;;5013417;28;20041;-80
2022/09/07 01:58:38;;;;;;;0.00;0.00;;;;;;;;;;4995669;28;20052;-81
2022/09/07 02:01:07;;;;;;;0.00;0.00;;;;;;;;;;5013103;28;20034;-81
2022/09/07 02:03:40;;;;;;;0.00;0.00;;;;;;;;;;4995722;28;20050;-80
2022/09/07 02:06:14;;;;;;;0.00;0.00;;;;;;;;;;5013372;28;20042;-80
2022/09/07 02:08:42;;;;;;;0.00;0.00;;;;;;;;;;5013473;28;20049;-80
2022/09/07 02:11:11;;;;;;;0.00;0.00;;;;;;;;;;5013312;28;20041;-80
2022/09/07 02:14:00;;;;;;;0.00;0.00;;;;;;;;;;5013282;28;20050;-79
2022/09/07 02:16:28;;;;;;;0.00;0.00;;;;;;;;;;5007626;28;20452;-80
2022/09/07 02:19:15;;;;;;;0.00;0.00;;;;;;;;;;4995525;28;20045;-79
2022/09/07 02:21:43;;;;;;;0.00;0.00;;;;;;;;;;5013223;28;20089;-80
2022/09/07 02:24:13;;;;;;;0.00;0.00;;;;;;;;;;4995788;28;20041;-79
2022/09/07 02:26:39;;;;;;;0.00;0.00;;;;;;;;;;5013056;28;20037;-80
2022/09/07 02:29:06;;;;;;;0.00;0.00;;;;;;;;;;5013041;28;20042;-79
2022/09/07 02:31:32;;;;;;;0.00;0.00;;;;;;;;;;4995235;28;20121;-79
2022/09/07 02:34:00;;;;;;;0.00;0.00;;;;;;;;;;4995272;28;20046;-79
2022/09/07 02:36:28;;;;;;;0.00;0.00;;;;;;;;;;4978967;28;20096;-79
2022/09/07 02:38:54;;;;;;;0.00;0.00;;;;;;;;;;5013113;28;20038;-79
2022/09/07 02:41:28;;;;;;;0.00;0.00;;;;;;;;;;4995150;28;20401;-79
2022/09/07 02:43:55;;;;;;;0.00;0.00;;;;;;;;;;4995355;28;20049;-80
2022/09/07 02:46:24;;;;;;;0.00;0.00;;;;;;;;;;4981063;28;20056;-79
2022/09/07 02:48:50;;;;;;;0.00;0.00;;;;;;;;;;5016968;28;20050;-80
2022/09/07 02:51:37;;;;;;;0.00;0.00;;;;;;;;;;5016542;28;20038;-80
2022/09/07 02:54:19;;;;;;;0.00;0.00;;;;;;;;;;5016913;28;20045;-80
2022/09/07 02:57:03;;;;;;;1.48;0.10;;;;;;;;;;4999207;28;20362;-79
2022/09/07 02:59:37;;;;;;;0.00;0.00;;;;;;;;;;5016792;28;20081;-79
2022/09/07 03:02:06;;;;;;;0.00;0.00;;;;;;;;;;4998861;28;20049;-80
2022/09/07 03:04:40;;;;;;;0.00;0.00;;;;;;;;;;5016767;28;20120;-79
2022/09/07 03:07:14;;;;;;;0.00;0.00;;;;;;;;;;4998782;28;20045;-79
2022/09/07 03:09:42;;;;;;;0.00;0.00;;;;;;;;;;5016568;28;20064;-79
2022/09/07 03:12:09;;;;;;;0.00;0.00;;;;;;;;;;4998600;28;20042;-80
2022/09/07 03:14:38;;;;;;;0.00;0.00;;;;;;;;;;4998630;28;20052;-80
2022/09/07 03:17:04;;;;;;;0.00;0.00;;;;;;;;;;4998785;28;20096;-80
2022/09/07 03:19:30;;;;;;;0.00;0.00;;;;;;;;;;4998595;28;20125;-79
2022/09/07 03:21:56;;;;;;;0.00;0.00;;;;;;;;;;5016165;28;20034;-79
2022/09/07 03:24:22;;;;;;;0.00;0.00;;;;;;;;;;4998901;28;20057;-80
2022/09/07 03:26:50;;;;;;;0.00;0.00;;;;;;;;;;5015951;28;20046;-80
2022/09/07 03:29:16;;;;;;;0.00;0.00;;;;;;;;;;4998649;28;20107;-80
2022/09/07 03:31:42;;;;;;;0.00;0.00;;;;;;;;;;4998333;28;20432;-80
2022/09/07 03:34:08;;;;;;;0.00;0.00;;;;;;;;;;4998383;28;20084;-80
2022/09/07 03:36:34;;;;;;;0.00;0.00;;;;;;;;;;4998637;28;20049;-79
2022/09/07 03:39:00;;;;;;;0.00;0.00;;;;;;;;;;4998404;28;20034;-79
2022/09/07 03:41:27;;;;;;;0.00;0.00;;;;;;;;;;4998264;28;20073;-79
2022/09/07 03:43:53;;;;;;;0.00;0.00;;;;;;;;;;5015578;28;20050;-80
2022/09/07 03:46:19;;;;;;;0.00;0.00;;;;;;;;;;4998277;28;20088;-80
2022/09/07 03:48:46;;;;;;;0.00;0.00;;;;;;;;;;4997929;28;20085;-80
2022/09/07 03:51:13;;;;;;;0.00;0.00;;;;;;;;;;4998344;28;20076;-80
2022/09/07 03:53:40;;;;;;;0.00;0.00;;;;;;;;;;5015266;28;20057;-79
2022/09/07 03:56:07;;;;;;;0.00;0.00;;;;;;;;;;4998261;28;20057;-80
2022/09/07 03:58:34;;;;;;;0.00;0.00;;;;;;;;;;5014620;28;20121;-79
2022/09/07 04:01:04;;;;;;;0.00;0.00;;;;;;;;;;5015842;28;20174;-80
2022/09/07 04:03:30;;;;;;;0.00;0.00;;;;;;;;;;4981353;28;20041;-79
2022/09/07 04:05:58;;;;;;;0.00;0.00;;;;;;;;;;4998026;28;20064;-80
2022/09/07 04:08:25;;;;;;;0.00;0.00;;;;;;;;;;4997708;28;20555;-80
2022/09/07 04:10:51;;;;;;;0.00;0.00;;;;;;;;;;4998019;28;20050;-79
2022/09/07 04:13:17;;;;;;;0.00;0.00;;;;;;;;;;4997506;28;20052;-79
2022/09/07 04:15:43;;;;;;;0.00;0.00;;;;;;;;;;5015207;28;20444;-80
2022/09/07 04:18:09;;;;;;;0.00;0.00;;;;;;;;;;4997452;28;20068;-80
2022/09/07 04:20:34;;;;;;;0.00;0.00;;;;;;;;;;5015043;28;20049;-79
2022/09/07 04:23:00;;;;;;;0.00;0.00;;;;;;;;;;5014870;28;20516;-80
2022/09/07 04:25:26;;;;;;;0.00;0.00;;;;;;;;;;5015192;28;20038;-80
2022/09/07 04:27:53;;;;;;;0.00;0.00;;;;;;;;;;5014683;28;20069;-81
2022/09/07 04:30:19;;;;;;;0.00;0.00;;;;;;;;;;5014883;28;20366;-80
2022/09/07 04:32:46;;;;;;;0.00;0.00;;;;;;;;;;4997072;28;20121;-79
2022/09/07 04:35:12;;;;;;;0.00;0.00;;;;;;;;;;5014700;28;20044;-80
2022/09/07 04:37:38;;;;;;;0.00;0.00;;;;;;;;;;5014782;28;20384;-80
2022/09/07 04:40:04;;;;;;;0.00;0.00;;;;;;;;;;4997330;28;20045;-79
2022/09/07 04:42:30;;;;;;;0.00;0.00;;;;;;;;;;4996891;28;20042;-79
2022/09/07 04:44:56;;;;;;;0.00;0.00;;;;;;;;;;4997342;28;20041;-80
2022/09/07 04:47:22;;;;;;;0.00;0.00;;;;;;;;;;5014221;28;20054;-79
2022/09/07 04:49:52;;;;;;;0.00;0.00;;;;;;;;;;5014497;28;20176;-80
2022/09/07 04:52:18;;;;;;;0.00;0.00;;;;;;;;;;5014793;28;20068;-80
2022/09/07 04:54:48;;;;;;;0.00;0.00;;;;;;;;;;5014474;28;20414;-80
2022/09/07 04:57:14;;;;;;;0.00;0.00;;;;;;;;;;5014357;28;20507;-80
2022/09/07 04:59:40;;;;;;;0.00;0.00;;;;;;;;;;4996720;28;20124;-80
2022/09/07 05:02:06;;;;;;;0.00;0.00;;;;;;;;;;5014498;28;20038;-80
2022/09/07 05:04:34;;;;;;;0.00;0.00;;;;;;;;;;4996549;28;20416;-80
2022/09/07 05:07:00;;;;;;;0.00;0.00;;;;;;;;;;4996989;28;20050;-79
2022/09/07 05:09:26;;;;;;;0.00;0.00;;;;;;;;;;5014128;28;20392;-80
2022/09/07 05:11:52;;;;;;;0.00;0.00;;;;;;;;;;4996544;28;20104;-80
2022/09/07 05:14:18;;;;;;;0.00;0.00;;;;;;;;;;4996208;28;20074;-79
2022/09/07 05:16:44;;;;;;;0.00;0.00;;;;;;;;;;4996719;28;20169;-80
2022/09/07 05:19:12;;;;;;;0.00;0.00;;;;;;;;;;4996178;28;20176;-80
2022/09/07 05:21:38;;;;;;;0.00;0.00;;;;;;;;;;4996391;28;20049;-80
2022/09/07 05:24:04;;;;;;;0.00;0.00;;;;;;;;;;4996169;28;20048;-80
2022/09/07 05:26:32;;;;;;;0.00;0.00;;;;;;;;;;4996664;28;20386;-80
2022/09/07 05:29:01;;;;;;;0.00;0.00;;;;;;;;;;4996001;28;20121;-80
2022/09/07 05:31:27;;;;;;;0.00;0.00;;;;;;;;;;4979890;28;20473;-79
2022/09/07 05:33:56;;;;;;;0.00;0.00;;;;;;;;;;5013772;28;20046;-80
2022/09/07 05:36:24;;;;;;;0.00;0.00;;;;;;;;;;4996142;28;20472;-81
2022/09/07 05:38:50;;;;;;;0.00;0.00;;;;;;;;;;4995846;28;20567;-80
2022/09/07 05:41:20;;;;;;;0.00;0.00;;;;;;;;;;5013661;28;20575;-80
2022/09/07 05:43:47;;;;;;;0.00;0.00;;;;;;;;;;5013316;28;20511;-80
2022/09/07 05:46:14;;;;;;;0.00;0.00;;;;;;;;;;5013640;28;20038;-79
2022/09/07 05:48:40;;;;;;;0.00;0.00;;;;;;;;;;5013578;28;20065;-80
2022/09/07 05:51:06;;;;;;;0.00;0.00;;;;;;;;;;4995931;28;20477;-80
2022/09/07 05:53:40;;;;;;;0.00;0.00;;;;;;;;;;5013333;28;20050;-80
2022/09/07 05:56:06;;;;;;;0.00;0.00;;;;;;;;;;5013473;28;20489;-80
2022/09/07 05:58:33;;;;;;;0.00;0.00;;;;;;;;;;5013030;28;20108;-80
2022/09/07 06:01:06;;;;;;;0.00;0.00;;;;;;;;;;4995739;28;20041;-79
2022/09/07 06:03:33;;;;;;;0.00;0.00;;;;;;;;;;4995454;28;20099;-80
2022/09/07 06:06:09;;;;;;;0.00;0.00;;;;;;;;;;4995875;28;20046;-80
2022/09/07 06:08:36;;;;;;;0.25;0.00;;;;;;;;;;4995798;28;20069;-80
2022/09/07 06:11:09;;;;;;;0.00;0.00;;;;;;;;;;5013221;28;20046;-80
2022/09/07 06:13:36;;;;;;;0.00;0.00;;;;;;;;;;4997557;28;20564;-80
2022/09/07 06:16:02;;;;;;;0.00;0.00;;;;;;;;;;5032377;28;20037;-81
2022/09/07 06:18:33;;;;;;;0.00;0.00;;;;;;;;;;5014620;28;20097;-81
2022/09/07 06:21:10;;;;;;;0.00;0.00;;;;;;;;;;5014489;28;20113;-82
2022/09/07 06:23:36;;;;;;;0.00;0.00;;;;;;;;;;5014690;28;20041;-80
2022/09/07 06:26:03;;;;;;;0.00;0.00;;;;;;;;;;5032682;28;20051;-81
2022/09/07 06:28:36;;;;;;;0.00;0.00;;;;;;;;;;5032218;28;20045;-81
2022/09/07 06:31:03;;;;;;;0.00;0.00;;;;;;;;;;5014689;28;20554;-80
2022/09/07 06:33:29;;;;;;;0.00;0.00;;;;;;;;;;5014611;28;20084;-82
2022/09/07 06:35:56;;;;;;;0.00;0.00;;;;;;;;;;5015040;28;20037;-79
2022/09/07 06:38:23;;;;;;;0.00;0.00;;;;;;;;;;5032386;28;20068;-80
2022/09/07 06:40:49;;;;;;;0.00;0.00;;;;;;;;;;5014608;28;20128;-81
2022/09/07 06:43:15;;;;;;;0.00;0.00;;;;;;;;;;5032064;28;20049;-81
2022/09/07 06:45:41;;;;;;;0.00;0.00;;;;;;;;;;5014747;28;20512;-82
2022/09/07 06:48:07;;;;;;;0.55;0.52;;;;;;;;;;5014286;28;20076;-79
2022/09/07 06:50:33;;;;;;;0.00;0.00;;;;;;;;;;5031804;28;20053;-81
2022/09/07 06:52:59;;;;;;;0.00;0.00;;;;;;;;;;5032190;28;20050;-81
2022/09/07 06:55:26;;;;;;;0.00;0.00;;;;;;;;;;5014329;28;20045;-82
2022/09/07 06:57:53;;;;;;;0.00;0.00;;;;;;;;;;5014577;28;20048;-81
2022/09/07 07:00:19;;;;;;;0.00;0.00;;;;;;;;;;5031681;28;20513;-81
2022/09/07 07:02:45;;;;;;;0.00;0.00;;;;;;;;;;5032231;28;20071;-81
2022/09/07 07:05:11;;;;;;;0.50;0.20;;;;;;;;;;5014050;28;20052;-81
2022/09/07 07:07:37;;;;;;;0.00;0.00;;;;;;;;;;5032355;28;20045;-82
2022/09/07 07:10:03;;;;;;;0.00;0.00;;;;;;;;;;5031716;28;20121;-81
2022/09/07 07:12:30;;;;;;;0.00;0.00;;;;;;;;;;5032416;28;20167;-81
2022/09/07 07:14:56;;;;;;;0.00;0.00;;;;;;;;;;4981768;28;20037;-81
2022/09/07 07:17:22;;;;;;;0.00;0.00;;;;;;;;;;5014142;28;20041;-81
2022/09/07 07:19:48;;;;;;;0.00;0.00;;;;;;;;;;5014579;28;20045;-81
2022/09/07 07:22:14;;;;;;;0.00;0.00;;;;;;;;;;5032518;28;20041;-81
2022/09/07 07:24:41;;;;;;;0.00;0.00;;;;;;;;;;5014371;28;20049;-82
2022/09/07 07:27:06;;;;;;;0.00;0.00;;;;;;;;;;5032507;28;20183;-82
2022/09/07 07:29:33;;;;;;;0.00;0.00;;;;;;;;;;5014262;28;20045;-81
2022/09/07 07:31:59;;;;;;;0.00;0.00;;;;;;;;;;5012401;28;20485;-82
2022/09/07 07:34:25;;;;;;;0.20;0.00;;;;;;;;;;4998096;28;20060;-81
2022/09/07 07:36:51;;;;;;;0.00;0.00;;;;;;;;;;4998674;28;20046;-81
2022/09/07 07:39:17;;;;;;;0.05;0.00;;;;;;;;;;4998151;28;20504;-89
2022/09/07 07:41:43;;;;;;;0.00;0.00;;;;;;;;;;5017137;28;20041;-81
2022/09/07 07:44:09;;;;;;;0.00;0.00;;;;;;;;;;4998011;28;20092;-78
2022/09/07 07:46:34;;;;;;;0.00;0.00;;;;;;;;;;5015851;28;20128;-83
2022/09/07 07:49:00;;;;;;;0.00;0.00;;;;;;;;;;4998076;28;20208;-81
2022/09/07 07:51:26;;;;;;;0.00;0.00;;;;;;;;;;5015754;28;20052;-82
2022/09/07 07:53:52;;;;;;;0.00;0.00;;;;;;;;;;4998221;28;20112;-81
2022/09/07 07:56:18;;;;;;;0.00;0.00;;;;;;;;;;4997846;28;20485;-82
2022/09/07 07:58:46;;;;;;;0.00;0.00;;;;;;;;;;4998008;28;20053;-81
2022/09/07 08:01:14;;;;;;;0.00;0.00;;;;;;;;;;4997847;28;20038;-82
2022/09/07 08:03:41;;;;;;;0.00;0.00;;;;;;;;;;4998256;28;20064;-82
2022/09/07 08:06:17;;;;;;;0.00;0.00;;;;;;;;;;4981637;28;20048;-81
2022/09/07 08:08:44;;;;;;;0.00;0.00;;;;;;;;;;4997244;28;20042;-82
2022/09/07 08:11:11;;;;;;;0.00;0.00;;;;;;;;;;4997515;28;20049;-81
2022/09/07 08:13:38;;;;;;;0.22;0.00;;;;;;;;;;5015245;28;20477;-82
2022/09/07 08:16:04;;;;;;;0.00;0.00;;;;;;;;;;4997485;28;20100;-83
2022/09/07 08:18:32;;;;;;;0.00;0.00;;;;;;;;;;5015440;28;20129;-82
2022/09/07 08:21:05;;;;;;;0.00;0.00;;;;;;;;;;5015301;28;20089;-91
2022/09/07 08:23:32;;;;;;;0.00;0.00;;;;;;;;;;4997764;28;20456;-83
2022/09/07 08:25:58;;;;;;;0.00;0.00;;;;;;;;;;5015143;28;20041;-83
2022/09/07 08:28:28;;;;;;;0.00;0.00;;;;;;;;;;4997351;28;20046;-81
2022/09/07 08:30:55;;;;;;;0.00;0.00;;;;;;;;;;4997322;28;20056;-83
2022/09/07 08:33:21;;;;;;;0.00;0.00;;;;;;;;;;5015163;28;20112;-83
2022/09/07 08:35:57;;;;;;;0.00;0.00;;;;;;;;;;5015591;28;20042;-83
2022/09/07 08:38:23;;;;;;;0.00;0.00;;;;;;;;;;4997227;28;20042;-82
2022/09/07 08:40:50;;;;;;;0.00;0.00;;;;;;;;;;5014773;28;20042;-83
2022/09/07 08:43:23;;;;;;;0.00;0.00;;;;;;;;;;4997059;28;20077;-83
2022/09/07 08:45:51;;;;;;;0.00;0.00;;;;;;;;;;4997164;28;20057;-84
2022/09/07 08:48:19;;;;;;;0.00;0.00;;;;;;;;;;4996992;28;20108;-83
2022/09/07 08:50:55;;;;;;;0.00;0.00;;;;;;;;;;4996790;28;20489;-83
2022/09/07 08:53:23;;;;;;;0.00;0.00;;;;;;;;;;4997018;28;20064;-84
2022/09/07 08:55:57;;;;;;;0.00;0.00;;;;;;;;;;4980717;28;20045;-85
2022/09/07 08:58:44;;;;;;;0.00;0.00;;;;;;;;;;4997017;28;20482;-84
2022/09/07 09:01:13;;;;;;;0.00;0.00;;;;;;;;;;5014554;28;20096;-84
2022/09/07 09:03:40;;;;;;;0.00;0.00;;;;;;;;;;4996982;28;20042;-84
2022/09/07 09:06:25;;;;;;;0.00;0.00;;;;;;;;;;5014353;28;20076;-84
2022/09/07 09:09:06;;;;;;;0.00;0.00;;;;;;;;;;5014368;28;20076;-84
2022/09/07 09:11:47;;;;;;;0.00;0.00;;;;;;;;;;5014234;28;20126;-84
2022/09/07 09:14:28;;;;;;;0.00;0.00;;;;;;;;;;4996520;28;20471;-84
2022/09/07 09:16:58;;;;;;;0.00;0.00;;;;;;;;;;4996344;28;20099;-83
2022/09/07 09:19:29;;;;;;;0.00;0.00;;;;;;;;;;4996415;28;20044;-84
2022/09/07 09:22:22;;;;;;;0.00;0.00;;;;;;;;;;5014050;28;20038;-84
2022/09/07 09:24:51;;;;;;;0.00;0.00;;;;;;;;;;5011986;28;20050;-82
2022/09/07 09:27:17;;;;;;;0.00;0.00;;;;;;;;;;5014059;28;20327;-83
2022/09/07 09:29:43;;;;;;;0.00;0.00;;;;;;;;;;4996377;28;20419;-84
2022/09/07 09:32:28;;;;;;;0.00;0.00;;;;;;;;;;4979886;28;20053;-83
2022/09/07 09:35:01;;;;;;;0.00;0.00;;;;;;;;;;4996213;28;20427;-83
2022/09/07 09:37:34;;;;;;;0.00;0.00;;;;;;;;;;5013864;28;20060;-84
2022/09/07 09:40:01;;;;;;;0.00;0.00;;;;;;;;;;4996003;28;20041;-83
2022/09/07 09:42:29;;;;;;;0.00;0.00;;;;;;;;;;4995902;28;20049;-84
2022/09/07 09:45:01;;;;;;;0.00;0.00;;;;;;;;;;5013851;28;20083;-83
2022/09/07 09:47:31;;;;;;;0.00;0.00;;;;;;;;;;5013500;28;20053;-83
2022/09/07 09:49:59;;;;;;;0.05;0.00;;;;;;;;;;4996480;28;20076;-82
2022/09/07 09:52:25;;;;;;;0.00;0.00;;;;;;;;;;4979775;28;20405;-83
2022/09/07 09:54:55;;;;;;;0.00;0.00;;;;;;;;;;4995334;28;20050;-83
2022/09/07 09:57:40;;;;;;;0.00;0.00;;;;;;;;;;5013264;28;20485;-83
2022/09/07 10:00:06;;;;;;;0.00;0.00;;;;;;;;;;5013549;28;20038;-84
2022/09/07 10:02:33;;;;;;;0.00;0.00;;;;;;;;;;4995595;28;20048;-83
2022/09/07 10:04:59;;;;;;;0.00;0.00;;;;;;;;;;5013465;28;20100;-83
2022/09/07 10:07:25;;;;;;;0.00;0.00;;;;;;;;;;5013350;28;20046;-83
2022/09/07 10:09:52;;;;;;;0.00;0.00;;;;;;;;;;5013320;28;20091;-84
2022/09/07 10:12:38;;;;;;;0.00;0.00;;;;;;;;;;4995705;28;20516;-84
2022/09/07 10:15:06;;;;;;;0.00;0.00;;;;;;;;;;4995324;28;20046;-82
2022/09/07 10:17:37;;;;;;;0.00;0.00;;;;;;;;;;5013214;28;20041;-83
2022/09/07 10:20:15;;;;;;;0.00;0.00;;;;;;;;;;4995775;28;20429;-83
2022/09/07 10:22:57;;;;;;;0.00;0.00;;;;;;;;;;4995404;28;20049;-82
2022/09/07 10:25:38;;;;;;;0.00;0.00;;;;;;;;;;5013022;28;20485;-83
2022/09/07 10:28:04;;;;;;;0.00;0.00;;;;;;;;;;4995704;28;20124;-83
2022/09/07 10:30:44;;;;;;;0.00;0.00;;;;;;;;;;5013161;28;20525;-83
2022/09/07 10:33:19;;;;;;;0.00;0.00;;;;;;;;;;5013182;28;20116;-82
2022/09/07 10:35:56;;;;;;;0.00;0.00;;;;;;;;;;4995139;28;20056;-82
2022/09/07 10:38:23;;;;;;;0.00;0.00;;;;;;;;;;4997676;28;20126;-82
2022/09/07 10:40:52;;;;;;;0.00;0.00;;;;;;;;;;5014945;28;20435;-83
2022/09/07 10:43:18;;;;;;;0.00;0.00;;;;;;;;;;4998580;28;20065;-82
2022/09/07 10:46:22;;;;;;;0.00;0.00;;;;;;;;;;5032698;28;20053;-82
2022/09/07 10:48:53;;;;;;;0.00;0.00;;;;;;;;;;4933220;29;20083;-83
2022/09/07 10:51:31;;;;;;;0.00;0.00;;;;;;;;;;4933170;29;20103;-83
2022/09/07 10:54:16;;;;;;;0.00;0.00;;;;;;;;;;4974886;28;20514;-82
2022/09/07 10:57:01;;;;;;;0.00;0.00;;;;;;;;;;5032286;28;20380;-82
2022/09/07 10:59:38;;;;;;;0.00;0.00;;;;;;;;;;5018139;28;20487;-83
2022/09/07 11:02:23;;;;;;;0.00;0.00;;;;;;;;;;4995179;28;20485;-85
2022/09/07 11:04:58;;;;;;;0.00;0.00;;;;;;;;;;4995087;28;20091;-81
2022/09/07 11:07:30;;;;;;;0.00;0.00;;;;;;;;;;5014924;28;20084;-82
2022/09/07 11:10:09;;;;;;;0.00;0.00;;;;;;;;;;5016495;28;20486;-82
2022/09/07 11:12:37;;;;;;;0.20;0.17;;;;;;;;;;5016551;28;20117;-81
2022/09/07 11:15:16;;;;;;;0.00;0.00;;;;;;;;;;4998665;28;20046;-82
2022/09/07 11:17:56;;;;;;;0.00;0.00;;;;;;;;;;5022993;28;20040;-81
2022/09/07 11:20:22;;;;;;;0.00;0.00;;;;;;;;;;5036278;28;20042;-81
2022/09/07 11:23:01;;;;;;;0.00;0.00;;;;;;;;;;5018423;28;20045;-81
2022/09/07 11:25:33;;;;;;;0.00;0.00;;;;;;;;;;5018276;28;20395;-82
2022/09/07 11:28:08;;;;;;;0.00;0.00;;;;;;;;;;5018068;28;20045;-81
2022/09/07 11:30:41;;;;;;;0.00;0.00;;;;;;;;;;5018578;28;20395;-82
2022/09/07 11:33:19;;;;;;;0.00;0.00;;;;;;;;;;5018238;28;20408;-82
2022/09/07 11:35:48;;;;;;;0.00;0.00;;;;;;;;;;5035977;28;20071;-82
2022/09/07 11:38:20;;;;;;;0.00;0.00;;;;;;;;;;5017829;28;20115;-81
2022/09/07 11:41:01;;;;;;;0.00;0.00;;;;;;;;;;5018352;28;20046;-81
2022/09/07 11:43:30;;;;;;;0.00;0.00;;;;;;;;;;5018097;28;20049;-81
2022/09/07 11:45:59;;;;;;;0.00;0.00;;;;;;;;;;5035884;28;20046;-83
2022/09/07 11:49:01;;;;;;;0.00;0.00;;;;;;;;;;5035140;28;20111;-81
2022/09/07 11:51:37;;;;;;;0.00;0.00;;;;;;;;;;4936129;29;20082;-82
2022/09/07 11:54:15;;;;;;;0.00;0.00;;;;;;;;;;5022617;28;20057;-81
2022/09/07 11:56:44;;;;;;;0.00;0.00;;;;;;;;;;5035512;28;20044;-81
2022/09/07 11:59:10;;;;;;;0.00;0.00;;;;;;;;;;5017625;28;20045;-82
2022/09/07 12:01:36;;;;;;;0.00;0.00;;;;;;;;;;5035542;28;20037;-81
2022/09/07 12:04:26;;;;;;;0.00;0.00;;;;;;;;;;5035151;28;20041;-81
2022/09/07 12:06:55;;;;;;;0.00;0.00;;;;;;;;;;5022619;28;20057;-81
2022/09/07 12:09:38;;;;;;;0.00;0.00;;;;;;;;;;5014623;28;20048;-81
2022/09/07 12:12:23;;;;;;;0.00;0.00;;;;;;;;;;5013894;28;20056;-81
2022/09/07 12:15:11;;;;;;;0.00;0.00;;;;;;;;;;4997625;28;20049;-81
2022/09/07 12:17:46;;;;;;;0.00;0.00;;;;;;;;;;5024842;28;20041;-81
2022/09/07 12:20:17;;;;;;;0.00;0.00;;;;;;;;;;5016858;28;20550;-82
2022/09/07 12:23:06;;;;;;;0.00;0.00;;;;;;;;;;5035049;28;20422;-83
2022/09/07 12:25:35;;;;;;;0.00;0.00;;;;;;;;;;5016451;28;20045;-82
2022/09/07 12:28:01;;;;;;;0.00;0.00;;;;;;;;;;5016976;28;20456;-81
2022/09/07 12:30:29;;;;;;;0.00;0.00;;;;;;;;;;5016851;28;20396;-82
2022/09/07 12:32:55;;;;;;;0.00;0.00;;;;;;;;;;5014622;28;20511;-82
2022/09/07 12:35:27;;;;;;;0.00;0.00;;;;;;;;;;5010957;28;20535;-83
2022/09/07 12:37:53;;;;;;;0.00;0.00;;;;;;;;;;5027554;28;20496;-81
2022/09/07 12:40:29;;;;;;;0.00;0.00;;;;;;;;;;5013478;28;20041;-81
2022/09/07 12:43:13;;;;;;;0.00;0.00;;;;;;;;;;5007202;28;20136;-82
2022/09/07 12:45:39;;;;;;;0.00;0.00;;;;;;;;;;5023215;28;20042;-81
2022/09/07 12:48:21;;;;;;;0.00;0.00;;;;;;;;;;5016071;28;20148;-81
2022/09/07 12:51:06;;;;;;;0.00;0.00;;;;;;;;;;5016676;28;20049;-81
2022/09/07 12:53:51;;;;;;;0.00;0.00;;;;;;;;;;5016691;28;20084;-81
2022/09/07 12:56:41;;;;;;;0.00;0.00;;;;;;;;;;5034477;28;20092;-81
2022/09/07 12:59:10;;;;;;;0.00;0.00;;;;;;;;;;5016464;28;20038;-81
2022/09/07 13:01:43;;;;;;;0.00;0.00;;;;;;;;;;5034463;28;20095;-82
2022/09/07 13:04:27;;;;;;;0.00;0.00;;;;;;;;;;5034255;28;20048;-82
2022/09/07 13:07:10;;;;;;;0.00;0.00;;;;;;;;;;5034521;28;20041;-82
2022/09/07 13:09:38;;;;;;;0.00;0.00;;;;;;;;;;5034059;28;20030;-82
2022/09/07 13:12:22;;;;;;;0.00;0.00;;;;;;;;;;5034299;28;20060;-82
2022/09/07 13:14:55;;;;;;;0.00;0.00;;;;;;;;;;5016127;28;20042;-82
2022/09/07 13:17:33;;;;;;;0.00;0.00;;;;;;;;;;5016456;28;20048;-81
2022/09/07 13:19:59;;;;;;;0.00;0.00;;;;;;;;;;5033969;28;20046;-81
2022/09/07 13:22:48;;;;;;;0.00;0.00;;;;;;;;;;5016130;28;20044;-82
2022/09/07 13:25:22;;;;;;;0.00;0.00;;;;;;;;;;5033641;28;20508;-83
2022/09/07 13:27:52;;;;;;;0.00;0.00;;;;;;;;;;5015996;28;20049;-84
2022/09/07 13:30:23;;;;;;;0.00;0.00;;;;;;;;;;5014956;28;20124;-83
2022/09/07 13:32:49;;;;;;;0.00;0.00;;;;;;;;;;5033611;28;20077;-83
2022/09/07 13:35:18;;;;;;;0.00;0.00;;;;;;;;;;5033814;28;20045;-82
2022/09/07 13:37:58;;;;;;;0.00;0.00;;;;;;;;;;5033585;28;20076;-83
2022/09/07 13:40:29;;;;;;;0.00;0.00;;;;;;;;;;5033670;28;20040;-85
2022/09/07 13:42:56;;;;;;;0.00;0.00;;;;;;;;;;5033529;28;20041;-83
2022/09/07 13:45:30;;;;;;;0.00;0.00;;;;;;;;;;5015597;28;20084;-82
2022/09/07 13:48:05;;;;;;;0.00;0.00;;;;;;;;;;5033110;28;20058;-82
2022/09/07 13:50:31;;;;;;;;;;;;;;;;;;5016337;28;20128;-82
2022/09/07 13:53:12;;;;;;;0.00;0.00;;;;;;;;;;5015695;28;20003;-82
2022/09/07 13:55:49;;;;;;;0.00;0.00;;;;;;;;;;5033408;28;20048;-82
2022/09/07 13:58:17;;;;;;;0.00;0.00;;;;;;;;;;5015220;28;20545;-84
2022/09/07 14:01:12;;;;;;;0.00;0.00;;;;;;;;;;5015477;28;20073;-83
2022/09/07 14:03:39;;;;;;;0.00;0.00;;;;;;;;;;5019957;28;20060;-82
2022/09/07 14:06:15;;;;;;;0.00;0.00;;;;;;;;;;5033172;28;20045;-82
2022/09/07 14:08:46;;;;;;;0.00;0.00;;;;;;;;;;5033013;28;20095;-83
2022/09/07 14:11:19;;;;;;;0.00;0.00;;;;;;;;;;5033344;28;20049;-83
2022/09/07 14:13:45;;;;;;;0.00;0.00;;;;;;;;;;5014973;28;20077;-83
2022/09/07 14:16:11;;;;;;;0.00;0.00;;;;;;;;;;5015298;28;20049;-82
2022/09/07 14:18:39;;;;;;;0.00;0.00;;;;;;;;;;5032816;28;20033;-81
2022/09/07 14:21:08;;;;;;;0.00;0.00;;;;;;;;;;5033072;28;20041;-82
2022/09/07 14:23:35;;;;;;;0.00;0.00;;;;;;;;;;5015224;28;20042;-81
2022/09/07 14:26:16;;;;;;;0.00;0.00;;;;;;;;;;5032812;28;20350;-81
2022/09/07 14:28:44;;;;;;;0.00;0.00;;;;;;;;;;5032742;28;20045;-82
2022/09/07 14:31:12;;;;;;;0.00;0.00;;;;;;;;;;4998699;28;20042;-82
2022/09/07 14:33:40;;;;;;;0.00;0.00;;;;;;;;;;5032788;28;20049;-82
2022/09/07 14:36:06;;;;;;;0.00;0.00;;;;;;;;;;5032991;28;20041;-82
2022/09/07 14:38:33;;;;;;;0.00;0.00;;;;;;;;;;5032619;28;20403;-82
2022/09/07 14:41:00;;;;;;;0.00;0.00;;;;;;;;;;5015176;28;20473;-83
2022/09/07 14:43:33;;;;;;;0.00;0.00;;;;;;;;;;5036815;28;20049;-81
2022/09/07 14:46:16;;;;;;;0.00;0.00;;;;;;;;;;5019010;28;20500;-82
2022/09/07 14:48:43;;;;;;;0.00;0.00;;;;;;;;;;5036437;28;20539;-81
2022/09/07 14:51:10;;;;;;;0.00;0.00;;;;;;;;;;5036734;28;20052;-81
2022/09/07 14:53:37;;;;;;;0.00;0.00;;;;;;;;;;5036290;28;20489;-81
2022/09/07 14:56:08;;;;;;;0.00;0.00;;;;;;;;;;5036523;28;20033;-84
2022/09/07 14:58:34;;;;;;;0.00;0.00;;;;;;;;;;5036462;28;20045;-81
2022/09/07 15:01:08;;;;;;;0.00;0.00;;;;;;;;;;5036378;28;20033;-81
2022/09/07 15:03:50;;;;;;;0.00;0.00;;;;;;;;;;5018443;28;20060;-81